sensor_id;sensor_type;location;lat;lon;timestamp;temperature;humidity
20066;DHT22;10193;48.884;9.182;2023-05-10T00:01:44;17.40;88.00
20066;DHT22;10193;48.884;9.182;2023-05-10T00:04:10;17.30;87.20
20066;DHT22;10193;48.884;9.182;2023-05-10T00:06:37;17.20;86.50
20066;DHT22;10193;48.884;9.182;2023-05-10T00:09:03;17.10;86.30
20066;DHT22;10193;48.884;9.182;2023-05-10T00:11:30;17.00;86.00
20066;DHT22;10193;48.884;9.182;2023-05-10T00:13:58;16.90;85.90
20066;DHT22;10193;48.884;9.182;2023-05-10T00:16:25;16.80;85.80
20066;DHT22;10193;48.884;9.182;2023-05-10T00:18:51;16.70;85.70
20066;DHT22;10193;48.884;9.182;2023-05-10T00:21:18;16.60;85.90
20066;DHT22;10193;48.884;9.182;2023-05-10T00:23:45;16.50;86.10
20066;DHT22;10193;48.884;9.182;2023-05-10T00:26:11;16.40;86.60
20066;DHT22;10193;48.884;9.182;2023-05-10T00:28:38;16.30;86.80
20066;DHT22;10193;48.884;9.182;2023-05-10T00:31:06;16.20;87.10
20066;DHT22;10193;48.884;9.182;2023-05-10T00:33:33;16.20;87.20
20066;DHT22;10193;48.884;9.182;2023-05-10T00:35:59;16.10;87.40
20066;DHT22;10193;48.884;9.182;2023-05-10T00:38:26;16.00;87.40
20066;DHT22;10193;48.884;9.182;2023-05-10T00:40:52;16.00;87.40
20066;DHT22;10193;48.884;9.182;2023-05-10T00:43:19;15.90;87.50
20066;DHT22;10193;48.884;9.182;2023-05-10T00:45:46;15.80;87.60
20066;DHT22;10193;48.884;9.182;2023-05-10T00:48:14;15.80;87.90
20066;DHT22;10193;48.884;9.182;2023-05-10T00:50:41;15.80;88.20
20066;DHT22;10193;48.884;9.182;2023-05-10T00:53:08;15.70;88.40
20066;DHT22;10193;48.884;9.182;2023-05-10T00:55:36;15.70;88.70
20066;DHT22;10193;48.884;9.182;2023-05-10T00:58:02;15.70;88.70
20066;DHT22;10193;48.884;9.182;2023-05-10T01:00:29;15.70;89.00
20066;DHT22;10193;48.884;9.182;2023-05-10T01:02:56;15.60;89.10
20066;DHT22;10193;48.884;9.182;2023-05-10T01:05:25;15.50;89.30
20066;DHT22;10193;48.884;9.182;2023-05-10T01:07:52;15.60;89.60
20066;DHT22;10193;48.884;9.182;2023-05-10T01:10:19;15.50;89.80
20066;DHT22;10193;48.884;9.182;2023-05-10T01:12:46;15.60;90.00
20066;DHT22;10193;48.884;9.182;2023-05-10T01:15:14;15.50;90.00
20066;DHT22;10193;48.884;9.182;2023-05-10T01:17:43;15.50;90.00
20066;DHT22;10193;48.884;9.182;2023-05-10T01:20:11;15.50;90.10
20066;DHT22;10193;48.884;9.182;2023-05-10T01:22:57;15.50;90.10
20066;DHT22;10193;48.884;9.182;2023-05-10T01:25:58;15.50;90.00
20066;DHT22;10193;48.884;9.182;2023-05-10T01:28:58;15.50;90.10
20066;DHT22;10193;48.884;9.182;2023-05-10T01:34:34;15.50;90.00
20066;DHT22;10193;48.884;9.182;2023-05-10T01:37:06;15.50;90.10
20066;DHT22;10193;48.884;9.182;2023-05-10T01:39:40;15.50;90.10
20066;DHT22;10193;48.884;9.182;2023-05-10T01:42:14;15.50;90.20
20066;DHT22;10193;48.884;9.182;2023-05-10T01:44:51;15.50;90.30
20066;DHT22;10193;48.884;9.182;2023-05-10T01:47:24;15.50;90.20
20066;DHT22;10193;48.884;9.182;2023-05-10T01:49:54;15.50;90.20
20066;DHT22;10193;48.884;9.182;2023-05-10T01:52:25;15.50;90.10
20066;DHT22;10193;48.884;9.182;2023-05-10T01:54:55;15.50;90.10
20066;DHT22;10193;48.884;9.182;2023-05-10T01:57:29;15.40;90.10
20066;DHT22;10193;48.884;9.182;2023-05-10T01:59:58;15.50;90.30
20066;DHT22;10193;48.884;9.182;2023-05-10T02:02:27;15.50;90.30
20066;DHT22;10193;48.884;9.182;2023-05-10T02:04:57;15.50;90.30
20066;DHT22;10193;48.884;9.182;2023-05-10T02:07:27;15.40;90.20
20066;DHT22;10193;48.884;9.182;2023-05-10T02:09:55;15.50;90.30
20066;DHT22;10193;48.884;9.182;2023-05-10T02:12:22;15.50;90.30
20066;DHT22;10193;48.884;9.182;2023-05-10T02:14:51;15.50;90.30
20066;DHT22;10193;48.884;9.182;2023-05-10T02:17:19;15.50;90.30
20066;DHT22;10193;48.884;9.182;2023-05-10T02:19:47;15.50;90.30
20066;DHT22;10193;48.884;9.182;2023-05-10T02:22:16;15.50;90.30
20066;DHT22;10193;48.884;9.182;2023-05-10T02:24:44;15.50;90.30
20066;DHT22;10193;48.884;9.182;2023-05-10T02:27:12;15.50;90.20
20066;DHT22;10193;48.884;9.182;2023-05-10T02:29:41;15.50;90.20
20066;DHT22;10193;48.884;9.182;2023-05-10T02:32:09;15.50;90.10
20066;DHT22;10193;48.884;9.182;2023-05-10T02:34:36;15.50;90.10
20066;DHT22;10193;48.884;9.182;2023-05-10T02:37:03;15.50;90.20
20066;DHT22;10193;48.884;9.182;2023-05-10T02:39:33;15.50;90.30
20066;DHT22;10193;48.884;9.182;2023-05-10T02:42:00;15.50;90.30
20066;DHT22;10193;48.884;9.182;2023-05-10T02:44:29;15.50;90.40
20066;DHT22;10193;48.884;9.182;2023-05-10T02:46:57;15.50;90.50
20066;DHT22;10193;48.884;9.182;2023-05-10T02:49:24;15.50;90.60
20066;DHT22;10193;48.884;9.182;2023-05-10T02:51:56;15.50;90.70
20066;DHT22;10193;48.884;9.182;2023-05-10T02:54:30;15.50;90.60
20066;DHT22;10193;48.884;9.182;2023-05-10T02:57:02;15.50;90.70
20066;DHT22;10193;48.884;9.182;2023-05-10T02:59:30;15.50;90.70
20066;DHT22;10193;48.884;9.182;2023-05-10T03:01:58;15.60;90.80
20066;DHT22;10193;48.884;9.182;2023-05-10T03:04:25;15.60;90.70
20066;DHT22;10193;48.884;9.182;2023-05-10T03:06:52;15.60;90.80
20066;DHT22;10193;48.884;9.182;2023-05-10T03:09:19;15.70;90.80
20066;DHT22;10193;48.884;9.182;2023-05-10T03:11:53;15.60;90.70
20066;DHT22;10193;48.884;9.182;2023-05-10T03:14:32;15.60;90.60
20066;DHT22;10193;48.884;9.182;2023-05-10T03:17:14;15.60;90.50
20066;DHT22;10193;48.884;9.182;2023-05-10T03:19:47;15.60;90.60
20066;DHT22;10193;48.884;9.182;2023-05-10T03:22:23;15.70;90.70
20066;DHT22;10193;48.884;9.182;2023-05-10T03:24:53;15.70;90.70
20066;DHT22;10193;48.884;9.182;2023-05-10T03:27:21;15.70;90.90
20066;DHT22;10193;48.884;9.182;2023-05-10T03:29:50;15.70;90.80
20066;DHT22;10193;48.884;9.182;2023-05-10T03:32:17;15.70;90.80
20066;DHT22;10193;48.884;9.182;2023-05-10T03:34:44;15.70;90.80
20066;DHT22;10193;48.884;9.182;2023-05-10T03:37:10;15.80;90.80
20066;DHT22;10193;48.884;9.182;2023-05-10T03:39:37;15.80;90.90
20066;DHT22;10193;48.884;9.182;2023-05-10T03:42:04;15.80;90.90
20066;DHT22;10193;48.884;9.182;2023-05-10T03:44:31;15.80;90.90
20066;DHT22;10193;48.884;9.182;2023-05-10T03:46:59;15.80;90.90
20066;DHT22;10193;48.884;9.182;2023-05-10T03:49:26;15.80;90.80
20066;DHT22;10193;48.884;9.182;2023-05-10T03:51:53;15.80;90.90
20066;DHT22;10193;48.884;9.182;2023-05-10T03:54:19;15.80;90.90
20066;DHT22;10193;48.884;9.182;2023-05-10T03:56:46;15.90;91.00
20066;DHT22;10193;48.884;9.182;2023-05-10T03:59:13;15.90;91.00
20066;DHT22;10193;48.884;9.182;2023-05-10T04:01:40;15.90;91.00
20066;DHT22;10193;48.884;9.182;2023-05-10T04:04:08;15.90;91.10
20066;DHT22;10193;48.884;9.182;2023-05-10T04:06:35;15.90;91.10
20066;DHT22;10193;48.884;9.182;2023-05-10T04:09:02;15.90;91.00
20066;DHT22;10193;48.884;9.182;2023-05-10T04:11:29;16.00;91.30
20066;DHT22;10193;48.884;9.182;2023-05-10T04:13:56;16.00;91.20
20066;DHT22;10193;48.884;9.182;2023-05-10T04:16:23;16.00;91.10
20066;DHT22;10193;48.884;9.182;2023-05-10T04:18:49;16.00;91.10
20066;DHT22;10193;48.884;9.182;2023-05-10T04:21:17;16.00;91.20
20066;DHT22;10193;48.884;9.182;2023-05-10T04:23:44;16.00;91.10
20066;DHT22;10193;48.884;9.182;2023-05-10T04:26:11;16.00;91.10
20066;DHT22;10193;48.884;9.182;2023-05-10T04:28:37;16.00;91.10
20066;DHT22;10193;48.884;9.182;2023-05-10T04:31:06;16.10;91.10
20066;DHT22;10193;48.884;9.182;2023-05-10T04:33:33;16.10;91.00
20066;DHT22;10193;48.884;9.182;2023-05-10T04:36:00;16.10;91.00
20066;DHT22;10193;48.884;9.182;2023-05-10T04:38:28;16.00;90.90
20066;DHT22;10193;48.884;9.182;2023-05-10T04:41:03;16.10;90.90
20066;DHT22;10193;48.884;9.182;2023-05-10T04:43:30;16.00;90.60
20066;DHT22;10193;48.884;9.182;2023-05-10T04:45:57;16.10;90.80
20066;DHT22;10193;48.884;9.182;2023-05-10T04:48:23;16.10;90.70
20066;DHT22;10193;48.884;9.182;2023-05-10T04:50:50;16.10;90.70
20066;DHT22;10193;48.884;9.182;2023-05-10T04:53:17;16.00;90.70
20066;DHT22;10193;48.884;9.182;2023-05-10T04:55:45;16.00;90.60
20066;DHT22;10193;48.884;9.182;2023-05-10T04:58:12;16.00;90.60
20066;DHT22;10193;48.884;9.182;2023-05-10T05:00:39;16.00;90.70
20066;DHT22;10193;48.884;9.182;2023-05-10T05:03:05;16.00;90.80
20066;DHT22;10193;48.884;9.182;2023-05-10T05:05:32;16.00;90.90
20066;DHT22;10193;48.884;9.182;2023-05-10T05:07:59;16.00;91.10
20066;DHT22;10193;48.884;9.182;2023-05-10T05:10:26;16.10;91.30
20066;DHT22;10193;48.884;9.182;2023-05-10T05:12:54;16.20;91.50
20066;DHT22;10193;48.884;9.182;2023-05-10T05:15:20;16.10;91.50
20066;DHT22;10193;48.884;9.182;2023-05-10T05:17:47;16.20;91.70
20066;DHT22;10193;48.884;9.182;2023-05-10T05:20:14;16.20;91.80
20066;DHT22;10193;48.884;9.182;2023-05-10T05:22:40;16.30;92.00
20066;DHT22;10193;48.884;9.182;2023-05-10T05:25:08;16.30;92.10
20066;DHT22;10193;48.884;9.182;2023-05-10T05:27:35;16.30;92.20
20066;DHT22;10193;48.884;9.182;2023-05-10T05:30:04;16.40;92.50
20066;DHT22;10193;48.884;9.182;2023-05-10T05:32:30;16.50;92.40
20066;DHT22;10193;48.884;9.182;2023-05-10T05:34:57;16.60;92.30
20066;DHT22;10193;48.884;9.182;2023-05-10T05:37:24;16.60;92.00
20066;DHT22;10193;48.884;9.182;2023-05-10T05:39:50;16.60;91.90
20066;DHT22;10193;48.884;9.182;2023-05-10T05:42:17;16.70;91.70
20066;DHT22;10193;48.884;9.182;2023-05-10T05:44:44;16.70;91.40
20066;DHT22;10193;48.884;9.182;2023-05-10T05:47:12;16.80;91.50
20066;DHT22;10193;48.884;9.182;2023-05-10T05:49:39;16.80;91.40
20066;DHT22;10193;48.884;9.182;2023-05-10T05:52:05;16.80;91.70
20066;DHT22;10193;48.884;9.182;2023-05-10T05:54:32;16.90;91.80
20066;DHT22;10193;48.884;9.182;2023-05-10T05:57:00;16.90;91.80
20066;DHT22;10193;48.884;9.182;2023-05-10T05:59:27;16.90;91.50
20066;DHT22;10193;48.884;9.182;2023-05-10T06:01:53;16.90;91.40
20066;DHT22;10193;48.884;9.182;2023-05-10T06:04:22;16.90;91.30
20066;DHT22;10193;48.884;9.182;2023-05-10T06:06:48;16.90;91.20
20066;DHT22;10193;48.884;9.182;2023-05-10T06:09:15;16.90;91.10
20066;DHT22;10193;48.884;9.182;2023-05-10T06:11:42;17.00;91.30
20066;DHT22;10193;48.884;9.182;2023-05-10T06:14:08;16.90;91.30
20066;DHT22;10193;48.884;9.182;2023-05-10T06:16:35;17.00;91.20
20066;DHT22;10193;48.884;9.182;2023-05-10T06:19:02;17.00;91.30
20066;DHT22;10193;48.884;9.182;2023-05-10T06:21:30;17.00;91.70
20066;DHT22;10193;48.884;9.182;2023-05-10T06:23:57;17.00;91.50
20066;DHT22;10193;48.884;9.182;2023-05-10T06:26:24;17.00;91.50
20066;DHT22;10193;48.884;9.182;2023-05-10T06:28:50;17.10;91.60
20066;DHT22;10193;48.884;9.182;2023-05-10T06:31:17;17.10;91.70
20066;DHT22;10193;48.884;9.182;2023-05-10T06:33:44;17.20;91.70
20066;DHT22;10193;48.884;9.182;2023-05-10T06:36:10;17.20;91.60
20066;DHT22;10193;48.884;9.182;2023-05-10T06:38:38;17.20;91.70
20066;DHT22;10193;48.884;9.182;2023-05-10T06:41:05;17.20;91.30
20066;DHT22;10193;48.884;9.182;2023-05-10T06:43:32;17.30;91.40
20066;DHT22;10193;48.884;9.182;2023-05-10T06:45:58;17.30;91.60
20066;DHT22;10193;48.884;9.182;2023-05-10T06:48:25;17.30;91.60
20066;DHT22;10193;48.884;9.182;2023-05-10T06:50:52;17.40;91.70
20066;DHT22;10193;48.884;9.182;2023-05-10T06:53:18;17.40;91.80
20066;DHT22;10193;48.884;9.182;2023-05-10T06:55:47;17.50;92.00
20066;DHT22;10193;48.884;9.182;2023-05-10T06:58:15;17.50;91.90
20066;DHT22;10193;48.884;9.182;2023-05-10T07:00:41;17.60;92.10
20066;DHT22;10193;48.884;9.182;2023-05-10T07:03:09;17.70;92.20
20066;DHT22;10193;48.884;9.182;2023-05-10T07:05:36;17.70;92.30
20066;DHT22;10193;48.884;9.182;2023-05-10T07:08:02;17.80;92.30
20066;DHT22;10193;48.884;9.182;2023-05-10T07:10:29;17.90;92.30
20066;DHT22;10193;48.884;9.182;2023-05-10T07:12:57;18.00;92.20
20066;DHT22;10193;48.884;9.182;2023-05-10T07:15:24;18.00;92.10
20066;DHT22;10193;48.884;9.182;2023-05-10T07:17:50;18.10;92.10
20066;DHT22;10193;48.884;9.182;2023-05-10T07:20:18;18.20;92.10
20066;DHT22;10193;48.884;9.182;2023-05-10T07:22:44;18.30;91.90
20066;DHT22;10193;48.884;9.182;2023-05-10T07:25:11;18.40;91.80
20066;DHT22;10193;48.884;9.182;2023-05-10T07:27:38;18.40;91.60
20066;DHT22;10193;48.884;9.182;2023-05-10T07:30:07;18.50;91.60
20066;DHT22;10193;48.884;9.182;2023-05-10T07:32:34;18.60;91.50
20066;DHT22;10193;48.884;9.182;2023-05-10T07:35:01;18.60;91.70
20066;DHT22;10193;48.884;9.182;2023-05-10T07:37:28;18.80;91.50
20066;DHT22;10193;48.884;9.182;2023-05-10T07:39:55;18.80;91.40
20066;DHT22;10193;48.884;9.182;2023-05-10T07:42:21;18.80;91.30
20066;DHT22;10193;48.884;9.182;2023-05-10T07:44:48;18.90;91.00
20066;DHT22;10193;48.884;9.182;2023-05-10T07:47:16;18.90;90.60
20066;DHT22;10193;48.884;9.182;2023-05-10T07:49:43;18.90;90.20
20066;DHT22;10193;48.884;9.182;2023-05-10T07:52:10;19.00;89.90
20066;DHT22;10193;48.884;9.182;2023-05-10T07:54:37;18.90;89.00
20066;DHT22;10193;48.884;9.182;2023-05-10T07:57:03;18.90;88.30
20066;DHT22;10193;48.884;9.182;2023-05-10T07:59:30;18.90;88.00
20066;DHT22;10193;48.884;9.182;2023-05-10T08:01:57;18.90;87.60
20066;DHT22;10193;48.884;9.182;2023-05-10T08:04:25;18.80;87.20
20066;DHT22;10193;48.884;9.182;2023-05-10T08:06:52;18.80;87.10
20066;DHT22;10193;48.884;9.182;2023-05-10T08:09:19;18.70;87.30
20066;DHT22;10193;48.884;9.182;2023-05-10T08:11:49;18.70;87.60
20066;DHT22;10193;48.884;9.182;2023-05-10T08:14:16;18.60;87.40
20066;DHT22;10193;48.884;9.182;2023-05-10T08:16:42;18.60;87.10
20066;DHT22;10193;48.884;9.182;2023-05-10T08:19:09;18.60;87.40
20066;DHT22;10193;48.884;9.182;2023-05-10T08:21:37;18.60;87.30
20066;DHT22;10193;48.884;9.182;2023-05-10T08:24:06;18.50;86.90
20066;DHT22;10193;48.884;9.182;2023-05-10T08:26:33;18.50;87.40
20066;DHT22;10193;48.884;9.182;2023-05-10T08:29:00;18.50;87.90
20066;DHT22;10193;48.884;9.182;2023-05-10T08:31:26;18.50;87.60
20066;DHT22;10193;48.884;9.182;2023-05-10T08:33:53;18.50;87.10
20066;DHT22;10193;48.884;9.182;2023-05-10T08:36:19;18.50;86.70
20066;DHT22;10193;48.884;9.182;2023-05-10T08:38:51;18.50;86.50
20066;DHT22;10193;48.884;9.182;2023-05-10T08:41:19;18.40;85.80
20066;DHT22;10193;48.884;9.182;2023-05-10T08:43:47;18.40;85.70
20066;DHT22;10193;48.884;9.182;2023-05-10T08:46:16;18.30;85.40
20066;DHT22;10193;48.884;9.182;2023-05-10T08:48:44;18.30;85.60
20066;DHT22;10193;48.884;9.182;2023-05-10T08:51:13;18.30;86.00
20066;DHT22;10193;48.884;9.182;2023-05-10T08:53:40;18.30;86.40
20066;DHT22;10193;48.884;9.182;2023-05-10T08:56:08;18.30;86.80
20066;DHT22;10193;48.884;9.182;2023-05-10T08:58:36;18.30;87.00
20066;DHT22;10193;48.884;9.182;2023-05-10T09:01:03;18.30;87.80
20066;DHT22;10193;48.884;9.182;2023-05-10T09:03:30;18.30;87.70
20066;DHT22;10193;48.884;9.182;2023-05-10T09:05:57;18.40;87.60
20066;DHT22;10193;48.884;9.182;2023-05-10T09:08:24;18.40;87.40
20066;DHT22;10193;48.884;9.182;2023-05-10T09:10:52;18.50;87.80
20066;DHT22;10193;48.884;9.182;2023-05-10T09:13:21;18.50;87.60
20066;DHT22;10193;48.884;9.182;2023-05-10T09:15:48;18.60;87.60
20066;DHT22;10193;48.884;9.182;2023-05-10T09:18:15;18.70;88.30
20066;DHT22;10193;48.884;9.182;2023-05-10T09:20:41;18.80;88.10
20066;DHT22;10193;48.884;9.182;2023-05-10T09:23:08;18.80;87.10
20066;DHT22;10193;48.884;9.182;2023-05-10T09:25:35;18.90;85.90
20066;DHT22;10193;48.884;9.182;2023-05-10T09:28:06;18.90;85.30
20066;DHT22;10193;48.884;9.182;2023-05-10T09:30:35;18.90;84.80
20066;DHT22;10193;48.884;9.182;2023-05-10T09:33:02;18.90;85.20
20066;DHT22;10193;48.884;9.182;2023-05-10T09:35:30;18.90;85.70
20066;DHT22;10193;48.884;9.182;2023-05-10T09:38:00;19.00;86.10
20066;DHT22;10193;48.884;9.182;2023-05-10T09:40:28;19.00;86.20
20066;DHT22;10193;48.884;9.182;2023-05-10T09:42:57;19.10;86.50
20066;DHT22;10193;48.884;9.182;2023-05-10T09:45:25;19.10;86.40
20066;DHT22;10193;48.884;9.182;2023-05-10T09:47:53;19.20;86.90
20066;DHT22;10193;48.884;9.182;2023-05-10T09:50:20;19.30;86.30
20066;DHT22;10193;48.884;9.182;2023-05-10T09:52:49;19.40;86.60
20066;DHT22;10193;48.884;9.182;2023-05-10T09:55:20;19.50;86.50
20066;DHT22;10193;48.884;9.182;2023-05-10T09:57:47;19.60;85.90
20066;DHT22;10193;48.884;9.182;2023-05-10T10:00:18;19.70;86.30
20066;DHT22;10193;48.884;9.182;2023-05-10T10:02:47;19.70;85.60
20066;DHT22;10193;48.884;9.182;2023-05-10T10:05:15;19.80;85.90
20066;DHT22;10193;48.884;9.182;2023-05-10T10:07:42;19.90;85.10
20066;DHT22;10193;48.884;9.182;2023-05-10T10:10:10;20.00;84.60
20066;DHT22;10193;48.884;9.182;2023-05-10T10:12:38;20.00;83.60
20066;DHT22;10193;48.884;9.182;2023-05-10T10:15:07;20.00;82.60
20066;DHT22;10193;48.884;9.182;2023-05-10T10:17:35;20.00;81.80
20066;DHT22;10193;48.884;9.182;2023-05-10T10:20:02;19.90;81.40
20066;DHT22;10193;48.884;9.182;2023-05-10T10:22:31;19.90;81.40
20066;DHT22;10193;48.884;9.182;2023-05-10T10:24:57;19.90;81.80
20066;DHT22;10193;48.884;9.182;2023-05-10T10:27:32;19.80;82.10
20066;DHT22;10193;48.884;9.182;2023-05-10T10:30:06;19.80;81.70
20066;DHT22;10193;48.884;9.182;2023-05-10T10:32:46;19.70;81.60
20066;DHT22;10193;48.884;9.182;2023-05-10T10:35:16;19.70;81.50
20066;DHT22;10193;48.884;9.182;2023-05-10T10:37:45;19.70;82.60
20066;DHT22;10193;48.884;9.182;2023-05-10T10:40:26;19.70;81.90
20066;DHT22;10193;48.884;9.182;2023-05-10T10:42:53;19.70;80.80
20066;DHT22;10193;48.884;9.182;2023-05-10T10:45:21;19.70;80.90
20066;DHT22;10193;48.884;9.182;2023-05-10T10:47:48;19.70;80.20
20066;DHT22;10193;48.884;9.182;2023-05-10T10:50:15;19.70;80.70
20066;DHT22;10193;48.884;9.182;2023-05-10T10:52:44;19.60;80.60
20066;DHT22;10193;48.884;9.182;2023-05-10T10:55:12;19.60;80.60
20066;DHT22;10193;48.884;9.182;2023-05-10T10:57:44;19.60;80.90
20066;DHT22;10193;48.884;9.182;2023-05-10T11:00:25;19.70;80.90
20066;DHT22;10193;48.884;9.182;2023-05-10T11:02:55;19.70;80.20
20066;DHT22;10193;48.884;9.182;2023-05-10T11:05:41;19.70;80.80
20066;DHT22;10193;48.884;9.182;2023-05-10T11:08:18;19.70;79.60
20066;DHT22;10193;48.884;9.182;2023-05-10T11:11:06;19.70;79.30
20066;DHT22;10193;48.884;9.182;2023-05-10T11:13:39;19.70;79.00
20066;DHT22;10193;48.884;9.182;2023-05-10T11:16:11;19.70;79.10
20066;DHT22;10193;48.884;9.182;2023-05-10T11:18:38;19.70;78.30
20066;DHT22;10193;48.884;9.182;2023-05-10T11:21:04;19.70;78.70
20066;DHT22;10193;48.884;9.182;2023-05-10T11:23:48;19.60;78.90
20066;DHT22;10193;48.884;9.182;2023-05-10T11:26:15;19.60;77.70
20066;DHT22;10193;48.884;9.182;2023-05-10T11:28:42;19.60;78.40
20066;DHT22;10193;48.884;9.182;2023-05-10T11:31:09;19.60;78.30
20066;DHT22;10193;48.884;9.182;2023-05-10T11:33:42;19.60;79.00
20066;DHT22;10193;48.884;9.182;2023-05-10T11:36:11;19.60;79.40
20066;DHT22;10193;48.884;9.182;2023-05-10T11:38:39;19.70;79.90
20066;DHT22;10193;48.884;9.182;2023-05-10T11:41:08;19.80;80.20
20066;DHT22;10193;48.884;9.182;2023-05-10T11:43:35;19.90;80.60
20066;DHT22;10193;48.884;9.182;2023-05-10T11:46:05;19.90;80.20
20066;DHT22;10193;48.884;9.182;2023-05-10T11:48:31;20.00;79.80
20066;DHT22;10193;48.884;9.182;2023-05-10T11:50:58;20.20;80.00
20066;DHT22;10193;48.884;9.182;2023-05-10T11:53:26;20.20;79.80
20066;DHT22;10193;48.884;9.182;2023-05-10T11:55:54;20.30;79.60
20066;DHT22;10193;48.884;9.182;2023-05-10T11:58:23;20.30;77.50
20066;DHT22;10193;48.884;9.182;2023-05-10T12:00:50;20.30;76.70
20066;DHT22;10193;48.884;9.182;2023-05-10T12:03:17;20.30;76.70
20066;DHT22;10193;48.884;9.182;2023-05-10T12:05:44;20.30;76.30
20066;DHT22;10193;48.884;9.182;2023-05-10T12:08:11;20.30;76.20
20066;DHT22;10193;48.884;9.182;2023-05-10T12:10:38;20.30;75.40
20066;DHT22;10193;48.884;9.182;2023-05-10T12:13:11;20.20;74.60
20066;DHT22;10193;48.884;9.182;2023-05-10T12:15:38;20.10;73.90
20066;DHT22;10193;48.884;9.182;2023-05-10T12:18:05;20.10;74.90
20066;DHT22;10193;48.884;9.182;2023-05-10T12:20:32;20.10;74.20
20066;DHT22;10193;48.884;9.182;2023-05-10T12:22:58;20.00;73.80
20066;DHT22;10193;48.884;9.182;2023-05-10T12:25:30;19.90;73.90
20066;DHT22;10193;48.884;9.182;2023-05-10T12:27:58;19.90;73.10
20066;DHT22;10193;48.884;9.182;2023-05-10T12:30:28;19.80;73.20
20066;DHT22;10193;48.884;9.182;2023-05-10T12:33:00;19.80;72.80
20066;DHT22;10193;48.884;9.182;2023-05-10T12:35:30;19.70;72.20
20066;DHT22;10193;48.884;9.182;2023-05-10T12:37:57;19.60;71.00
20066;DHT22;10193;48.884;9.182;2023-05-10T12:40:24;19.50;71.80
20066;DHT22;10193;48.884;9.182;2023-05-10T12:42:50;19.40;72.10
20066;DHT22;10193;48.884;9.182;2023-05-10T12:45:17;19.30;72.80
20066;DHT22;10193;48.884;9.182;2023-05-10T12:47:46;19.40;73.70
20066;DHT22;10193;48.884;9.182;2023-05-10T12:50:12;19.30;74.50
20066;DHT22;10193;48.884;9.182;2023-05-10T12:52:39;19.40;74.80
20066;DHT22;10193;48.884;9.182;2023-05-10T12:55:06;19.40;74.40
20066;DHT22;10193;48.884;9.182;2023-05-10T12:57:33;19.50;74.80
20066;DHT22;10193;48.884;9.182;2023-05-10T12:59:59;19.60;75.30
20066;DHT22;10193;48.884;9.182;2023-05-10T13:02:26;19.60;75.90
20066;DHT22;10193;48.884;9.182;2023-05-10T13:04:54;19.70;76.10
20066;DHT22;10193;48.884;9.182;2023-05-10T13:07:21;19.80;76.20
20066;DHT22;10193;48.884;9.182;2023-05-10T13:09:48;19.90;75.40
20066;DHT22;10193;48.884;9.182;2023-05-10T13:12:14;20.00;75.50
20066;DHT22;10193;48.884;9.182;2023-05-10T13:14:41;20.00;75.60
20066;DHT22;10193;48.884;9.182;2023-05-10T13:17:08;20.10;75.50
20066;DHT22;10193;48.884;9.182;2023-05-10T13:19:34;20.20;74.40
20066;DHT22;10193;48.884;9.182;2023-05-10T13:22:02;20.20;74.20
20066;DHT22;10193;48.884;9.182;2023-05-10T13:24:29;20.20;74.00
20066;DHT22;10193;48.884;9.182;2023-05-10T13:26:56;20.20;73.80
20066;DHT22;10193;48.884;9.182;2023-05-10T13:29:22;20.20;74.00
20066;DHT22;10193;48.884;9.182;2023-05-10T13:31:49;20.20;73.10
20066;DHT22;10193;48.884;9.182;2023-05-10T13:34:16;20.10;73.00
20066;DHT22;10193;48.884;9.182;2023-05-10T13:36:45;20.10;73.10
20066;DHT22;10193;48.884;9.182;2023-05-10T13:39:13;20.10;73.10
20066;DHT22;10193;48.884;9.182;2023-05-10T13:41:40;20.10;73.50
20066;DHT22;10193;48.884;9.182;2023-05-10T13:44:07;20.10;73.70
20066;DHT22;10193;48.884;9.182;2023-05-10T13:46:33;20.10;73.60
20066;DHT22;10193;48.884;9.182;2023-05-10T13:49:00;20.20;73.90
20066;DHT22;10193;48.884;9.182;2023-05-10T13:51:27;20.20;74.00
20066;DHT22;10193;48.884;9.182;2023-05-10T13:53:54;20.20;74.30
20066;DHT22;10193;48.884;9.182;2023-05-10T13:56:21;20.20;74.30
20066;DHT22;10193;48.884;9.182;2023-05-10T13:58:48;20.30;74.10
20066;DHT22;10193;48.884;9.182;2023-05-10T14:01:15;20.30;74.00
20066;DHT22;10193;48.884;9.182;2023-05-10T14:03:41;20.30;73.60
20066;DHT22;10193;48.884;9.182;2023-05-10T14:06:08;20.30;73.30
20066;DHT22;10193;48.884;9.182;2023-05-10T14:08:35;20.30;73.40
20066;DHT22;10193;48.884;9.182;2023-05-10T14:11:02;20.30;73.20
20066;DHT22;10193;48.884;9.182;2023-05-10T14:13:30;20.30;73.80
20066;DHT22;10193;48.884;9.182;2023-05-10T14:15:57;20.30;73.00
20066;DHT22;10193;48.884;9.182;2023-05-10T14:18:25;20.30;73.10
20066;DHT22;10193;48.884;9.182;2023-05-10T14:20:52;20.30;73.20
20066;DHT22;10193;48.884;9.182;2023-05-10T14:23:19;20.30;73.20
20066;DHT22;10193;48.884;9.182;2023-05-10T14:25:49;20.30;73.00
20066;DHT22;10193;48.884;9.182;2023-05-10T14:28:16;20.30;73.20
20066;DHT22;10193;48.884;9.182;2023-05-10T14:30:45;20.30;72.90
20066;DHT22;10193;48.884;9.182;2023-05-10T14:33:11;20.30;72.40
20066;DHT22;10193;48.884;9.182;2023-05-10T14:35:38;20.20;72.30
20066;DHT22;10193;48.884;9.182;2023-05-10T14:38:05;20.20;72.20
20066;DHT22;10193;48.884;9.182;2023-05-10T14:40:32;20.20;72.00
20066;DHT22;10193;48.884;9.182;2023-05-10T14:42:58;20.20;72.30
20066;DHT22;10193;48.884;9.182;2023-05-10T14:45:25;20.20;72.20
20066;DHT22;10193;48.884;9.182;2023-05-10T14:47:53;20.20;72.40
20066;DHT22;10193;48.884;9.182;2023-05-10T14:50:20;20.20;72.40
20066;DHT22;10193;48.884;9.182;2023-05-10T14:52:47;20.20;72.70
20066;DHT22;10193;48.884;9.182;2023-05-10T14:55:14;20.20;72.50
20066;DHT22;10193;48.884;9.182;2023-05-10T14:57:41;20.20;72.60
20066;DHT22;10193;48.884;9.182;2023-05-10T15:00:10;20.30;72.40
20066;DHT22;10193;48.884;9.182;2023-05-10T15:02:37;20.30;72.30
20066;DHT22;10193;48.884;9.182;2023-05-10T15:05:06;20.30;72.10
20066;DHT22;10193;48.884;9.182;2023-05-10T15:07:32;20.30;72.20
20066;DHT22;10193;48.884;9.182;2023-05-10T15:09:59;20.40;72.60
20066;DHT22;10193;48.884;9.182;2023-05-10T15:12:26;20.40;72.00
20066;DHT22;10193;48.884;9.182;2023-05-10T15:14:52;20.40;71.50
20066;DHT22;10193;48.884;9.182;2023-05-10T15:17:19;20.30;71.60
20066;DHT22;10193;48.884;9.182;2023-05-10T15:19:46;20.40;72.00
20066;DHT22;10193;48.884;9.182;2023-05-10T15:22:15;20.40;72.20
20066;DHT22;10193;48.884;9.182;2023-05-10T15:24:42;20.40;72.30
20066;DHT22;10193;48.884;9.182;2023-05-10T15:27:09;20.50;72.80
20066;DHT22;10193;48.884;9.182;2023-05-10T15:29:35;20.50;72.70
20066;DHT22;10193;48.884;9.182;2023-05-10T15:32:02;20.60;72.50
20066;DHT22;10193;48.884;9.182;2023-05-10T15:34:29;20.60;72.00
20066;DHT22;10193;48.884;9.182;2023-05-10T15:36:55;20.70;71.60
20066;DHT22;10193;48.884;9.182;2023-05-10T15:39:23;20.60;71.10